createdAt,value
2023-05-10T00:06:56.038Z,6.53
2023-05-10T00:17:17.281Z,3.10
2023-05-10T00:27:39.072Z,4.78
2023-05-10T00:38:00.596Z,4.33
2023-05-10T00:48:22.898Z,4.97
2023-05-10T00:58:44.846Z,2.80
2023-05-10T01:09:07.493Z,3.70
2023-05-10T01:19:30.876Z,2.10
2023-05-10T01:30:43.917Z,3.17
2023-05-10T01:41:26.820Z,3.27
2023-05-10T01:51:55.750Z,2.70
2023-05-10T02:02:17.259Z,3.30
2023-05-10T02:12:31.095Z,3.92
2023-05-10T02:22:53.812Z,9.20
2023-05-10T02:33:16.227Z,6.80
2023-05-10T02:43:39.309Z,5.37
2023-05-10T02:54:05.353Z,4.97
2023-05-10T03:04:27.269Z,7.20
2023-05-10T03:15:21.849Z,5.77
2023-05-10T03:25:44.871Z,6.53
2023-05-10T03:36:07.696Z,4.80
2023-05-10T03:46:29.233Z,5.70
2023-05-10T03:56:50.760Z,3.75
2023-05-10T04:07:14.704Z,10.97
2023-05-10T04:17:36.688Z,9.50
2023-05-10T04:27:58.833Z,9.60
2023-05-10T04:38:20.878Z,4.10
2023-05-10T04:48:42.835Z,7.38
2023-05-10T04:59:04.331Z,4.87
2023-05-10T05:09:25.818Z,8.03
2023-05-10T05:19:47.443Z,3.57
2023-05-10T05:30:09.335Z,5.33
2023-05-10T05:40:31.002Z,5.28
2023-05-10T05:50:57.567Z,4.33
2023-05-10T06:01:19.078Z,4.13
2023-05-10T06:11:40.619Z,4.00
2023-05-10T06:22:02.461Z,2.93
2023-05-10T06:32:25.685Z,2.45
2023-05-10T06:42:48.017Z,4.10
2023-05-10T06:53:09.508Z,7.20
2023-05-10T07:03:31.208Z,2.43
2023-05-10T07:13:52.699Z,3.57
2023-05-10T07:24:14.386Z,3.38
2023-05-10T07:34:35.945Z,2.83
2023-05-10T07:44:57.873Z,2.50
2023-05-10T07:55:22.202Z,4.50
2023-05-10T08:05:44.048Z,3.00
2023-05-10T08:16:05.552Z,8.55
2023-05-10T08:26:26.956Z,5.23
2023-05-10T08:36:48.579Z,4.17
2023-05-10T08:47:11.118Z,2.27
2023-05-10T08:57:32.966Z,2.27
2023-05-10T09:07:54.785Z,3.25
2023-05-10T09:18:16.634Z,3.63
2023-05-10T09:28:57.969Z,2.73
2023-05-10T09:39:19.504Z,2.43
2023-05-10T09:49:41.670Z,3.23
2023-05-10T10:00:05.620Z,2.20
2023-05-10T10:10:35.156Z,2.00
2023-05-10T10:20:57.482Z,3.00
2023-05-10T10:31:43.230Z,2.20
2023-05-10T10:42:05.971Z,4.93
2023-05-10T10:52:38.735Z,7.00
2023-05-10T11:03:09.121Z,2.13
2023-05-10T11:13:36.997Z,3.83
2023-05-10T11:24:00.235Z,6.43
2023-05-10T11:34:36.520Z,2.57
2023-05-10T11:44:58.193Z,3.47
2023-05-10T11:55:20.525Z,6.07
2023-05-10T12:05:43.090Z,7.70
2023-05-10T12:16:17.931Z,2.70
2023-05-10T12:26:39.576Z,2.20
2023-05-10T12:37:02.251Z,2.40
2023-05-10T12:47:23.955Z,1.20
2023-05-10T12:57:45.818Z,1.80
2023-05-10T13:08:07.745Z,3.70
2023-05-10T13:18:29.224Z,2.37
2023-05-10T13:28:52.798Z,3.08
2023-05-10T13:39:14.732Z,7.83
2023-05-10T13:49:36.395Z,2.73
2023-05-10T13:59:58.652Z,2.70
2023-05-10T14:10:21.157Z,2.63
2023-05-10T14:20:42.716Z,5.55
2023-05-10T14:31:04.341Z,6.43
2023-05-10T14:41:25.888Z,2.80
2023-05-10T14:51:47.491Z,4.17
2023-05-10T15:02:10.043Z,7.20
2023-05-10T15:12:33.004Z,8.63
2023-05-10T15:22:54.474Z,2.23
2023-05-10T15:33:17.108Z,2.20
2023-05-10T15:43:38.831Z,2.67
2023-05-10T15:54:07.326Z,7.67
2023-05-10T16:04:30.230Z,2.55
2023-05-10T16:14:52.109Z,2.60
2023-05-10T16:25:15.922Z,2.10
2023-05-10T16:35:37.333Z,5.10
2023-05-10T16:45:58.953Z,8.17
2023-05-10T16:56:22.292Z,4.00
2023-05-10T17:06:44.010Z,2.97
2023-05-10T17:17:05.904Z,2.07
2023-05-10T17:27:29.055Z,6.90
2023-05-10T17:37:50.578Z,2.07
2023-05-10T17:48:11.997Z,7.82
2023-05-10T17:58:34.172Z,6.47
2023-05-10T18:08:56.216Z,4.53
2023-05-10T18:19:25.357Z,4.93
2023-05-10T18:29:47.218Z,5.73
2023-05-10T18:40:11.224Z,15.32
2023-05-10T18:50:32.862Z,11.43
2023-05-10T19:00:54.249Z,10.73
2023-05-10T19:11:15.954Z,13.13
2023-05-10T19:21:37.655Z,19.50
2023-05-10T19:32:00.820Z,13.80
2023-05-10T19:42:22.352Z,13.33
2023-05-10T19:52:44.854Z,11.03
2023-05-10T20:03:09.010Z,8.13
2023-05-10T20:13:31.213Z,6.80
2023-05-10T20:23:53.226Z,12.98
2023-05-10T20:34:14.843Z,28.00
2023-05-10T20:44:36.529Z,18.60
2023-05-10T20:54:58.275Z,27.40
2023-05-10T21:05:19.890Z,33.07
2023-05-10T21:15:41.692Z,40.28
2023-05-10T21:26:04.111Z,25.40
2023-05-10T21:36:26.906Z,27.73
2023-05-10T21:46:48.540Z,35.27
2023-05-10T21:57:09.757Z,36.03
2023-05-10T22:07:32.101Z,21.92
2023-05-10T22:17:53.596Z,29.37
2023-05-10T22:28:15.042Z,24.37
2023-05-10T22:38:37.481Z,26.90
2023-05-10T22:48:59.758Z,27.83
2023-05-10T22:59:21.770Z,23.30
2023-05-10T23:09:43.425Z,20.93
2023-05-10T23:20:05.581Z,24.47
2023-05-10T23:30:27.665Z,27.07
2023-05-10T23:40:50.769Z,25.10
2023-05-10T23:51:11.937Z,21.10
